Time;durP1;ratioP1;P1;durP2;ratioP2;P2;SDS_P1;SDS_P2;PMS_P1;PMS_P2;Temp;Humidity;BMP_temperature;BMP_pressure;BME280_temperature;BME280_humidity;BME280_pressure;Samples;Min_cycle;Max_cycle;Signal;HPM_P1;HPM_P2
2022/10/28 00:00:27;;;;;;;20.20;2.70;;;22.50;85.70;;;;;;5012807;28;20030;-72
2022/10/28 00:02:54;;;;;;;17.02;2.42;;;22.60;85.60;;;;;;5012361;28;20025;-73
2022/10/28 00:05:20;;;;;;;18.02;2.80;;;22.70;85.20;;;;;;4994379;28;20033;-72
2022/10/28 00:07:47;;;;;;;16.40;2.83;;;22.80;84.20;;;;;;5012462;28;20024;-73
2022/10/28 00:10:14;;;;;;;22.75;3.08;;;22.90;84.30;;;;;;5012360;28;20056;-72
2022/10/28 00:12:40;;;;;;;15.73;2.80;;;23.00;84.50;;;;;;4994567;28;20108;-73
2022/10/28 00:15:07;;;;;;;19.77;3.05;;;23.00;84.20;;;;;;5011979;28;20041;-72
2022/10/28 00:17:33;;;;;;;14.60;2.63;;;23.00;84.30;;;;;;5012247;28;20026;-73
2022/10/28 00:19:59;;;;;;;16.92;2.60;;;22.90;84.70;;;;;;5012233;28;20018;-72
2022/10/28 00:22:26;;;;;;;20.23;3.28;;;22.90;87.30;;;;;;5011805;28;20064;-72
2022/10/28 00:24:54;;;;;;;22.67;3.05;;;22.80;87.60;;;;;;5011759;28;20478;-72
2022/10/28 00:27:20;;;;;;;17.55;3.10;;;22.70;85.70;;;;;;5012247;28;20450;-74
2022/10/28 00:29:47;;;;;;;14.13;3.13;;;22.60;86.70;;;;;;5012229;28;20441;-73
2022/10/28 00:32:13;;;;;;;18.13;3.53;;;22.60;89.40;;;;;;4993210;28;20481;-73
2022/10/28 00:34:39;;;;;;;20.05;2.33;;;22.60;91.00;;;;;;4993129;28;20366;-73
2022/10/28 00:37:07;;;;;;;26.83;3.50;;;22.60;85.30;;;;;;5011868;28;20051;-73
2022/10/28 00:39:33;;;;;;;19.98;3.22;;;22.80;84.40;;;;;;5011592;28;20040;-72
2022/10/28 00:42:03;;;;;;;17.65;3.47;;;22.80;84.10;;;;;;5013868;28;20106;-72
2022/10/28 00:45:01;;;;;;;13.85;2.72;;;22.90;83.90;;;;;;5011496;28;20026;-73
2022/10/28 00:47:39;;;;;;;19.27;3.08;;;22.90;83.90;;;;;;5011772;28;20036;-73
2022/10/28 00:50:36;;;;;;;17.42;2.85;;;22.90;83.90;;;;;;5018791;28;20116;-73
2022/10/28 00:53:24;;;;;;;14.02;2.92;;;22.80;84.60;;;;;;4991863;28;20057;-74
2022/10/28 00:55:50;;;;;;;22.23;3.40;;;22.80;84.30;;;;;;4992189;28;20041;-73
2022/10/28 00:58:18;;;;;;;;;;;22.80;84.00;;;;;;4993039;28;20410;-73
2022/10/28 01:00:44;;;;;;;14.02;2.90;;;22.80;84.10;;;;;;4978157;28;19997;-73
2022/10/28 01:03:10;;;;;;;19.23;3.80;;;22.70;85.00;;;;;;4995867;28;20053;-73
2022/10/28 01:05:40;;;;;;;19.02;3.63;;;22.60;92.30;;;;;;4996221;28;20031;-73
2022/10/28 01:08:12;;;;;;;18.38;3.72;;;22.40;96.00;;;;;;4978015;28;20039;-74
2022/10/28 01:10:55;;;;;;;18.38;4.07;;;22.30;95.30;;;;;;4996119;28;20468;-73
2022/10/28 01:13:31;;;;;;;21.25;3.53;;;22.20;96.30;;;;;;4995988;28;20366;-71
2022/10/28 01:16:12;;;;;;;18.88;4.07;;;22.10;96.90;;;;;;4996025;28;20038;-71
2022/10/28 01:18:50;;;;;;;16.25;3.28;;;22.00;97.90;;;;;;4995905;28;20026;-73
2022/10/28 01:21:32;;;;;;;18.23;4.07;;;22.00;98.40;;;;;;4995873;28;20030;-72
2022/10/28 01:24:14;;;;;;;19.10;3.88;;;21.90;98.60;;;;;;5003572;28;20414;-71
2022/10/28 01:26:55;;;;;;;15.05;3.40;;;21.80;98.50;;;;;;5034274;28;20417;-73
2022/10/28 01:29:45;;;;;;;13.65;3.70;;;21.80;98.30;;;;;;5033355;28;20030;-72
2022/10/28 01:32:33;;;;;;;16.17;3.22;;;21.80;97.50;;;;;;5026599;28;20034;-72
2022/10/28 01:35:08;;;;;;;14.27;3.80;;;21.80;96.90;;;;;;5014453;28;20365;-73
2022/10/28 01:37:53;;;;;;;19.87;3.37;;;21.80;96.80;;;;;;5013778;28;20030;-72
2022/10/28 01:40:34;;;;;;;17.70;3.60;;;21.70;96.70;;;;;;5014952;28;20029;-72
2022/10/28 01:43:11;;;;;;;16.73;3.45;;;21.70;96.10;;;;;;5015049;28;20462;-73
2022/10/28 01:45:50;;;;;;;14.13;3.20;;;21.80;96.30;;;;;;5015054;28;20528;-73
2022/10/28 01:48:28;;;;;;;15.35;3.35;;;21.80;94.90;;;;;;4996776;28;20026;-74
2022/10/28 01:51:09;;;;;;;20.83;3.88;;;21.70;94.70;;;;;;5016098;28;20148;-72
2022/10/28 01:53:41;;;;;;;17.55;3.03;;;21.70;94.20;;;;;;5021669;28;20166;-72
2022/10/28 01:56:13;;;;;;;19.63;3.58;;;21.70;93.70;;;;;;5015655;28;20026;-72
2022/10/28 01:58:40;;;;;;;17.65;3.30;;;21.60;93.10;;;;;;5012800;28;20018;-73
2022/10/28 02:01:09;;;;;;;8.57;2.58;;;21.70;92.90;;;;;;5014048;28;20069;-73
2022/10/28 02:03:35;;;;;;;12.15;3.00;;;21.60;92.40;;;;;;5014307;28;20382;-73
2022/10/28 02:06:11;;;;;;;17.80;3.80;;;21.60;92.10;;;;;;5014576;28;20477;-73
2022/10/28 02:08:45;;;;;;;16.70;3.38;;;21.60;92.20;;;;;;5014679;28;20033;-74
2022/10/28 02:11:38;;;;;;;18.63;3.35;;;21.70;92.10;;;;;;5013029;28;20036;-73
2022/10/28 02:14:34;;;;;;;16.08;3.70;;;21.70;92.20;;;;;;5014015;28;20155;-74
2022/10/28 02:17:56;;;;;;;17.20;3.13;;;21.70;91.60;;;;;;5014326;28;20029;-73
2022/10/28 02:20:56;;;;;;;13.30;2.72;;;21.70;91.70;;;;;;4937381;29;20043;-73
2022/10/28 02:23:27;;;;;;;19.45;3.80;;;21.60;91.70;;;;;;4937441;29;20129;-74
2022/10/28 02:26:21;;;;;;;19.17;3.78;;;21.60;92.40;;;;;;4953084;29;20130;-74
2022/10/28 02:29:07;;;;;;;20.20;3.88;;;21.60;93.00;;;;;;4937180;29;20023;-73
2022/10/28 02:31:41;;;;;;;18.20;2.90;;;21.50;93.90;;;;;;4953572;29;20066;-74
2022/10/28 02:34:20;;;;;;;23.98;3.97;;;21.50;94.30;;;;;;4937065;29;20136;-75
2022/10/28 02:36:50;;;;;;;19.10;3.67;;;21.50;96.60;;;;;;4954838;28;20105;-73
2022/10/28 02:39:19;;;;;;;21.77;3.40;;;21.40;96.50;;;;;;4953253;29;20043;-73
2022/10/28 02:42:09;;;;;;;24.77;4.55;;;21.30;97.60;;;;;;4952860;29;20070;-74
2022/10/28 02:44:43;;;;;;;24.25;4.28;;;21.20;98.40;;;;;;4953065;29;20031;-74
2022/10/28 02:47:14;;;;;;;18.80;3.58;;;21.20;98.80;;;;;;4952670;29;20106;-74
2022/10/28 02:49:44;;;;;;;20.42;3.35;;;21.10;99.00;;;;;;4952636;29;20161;-73
2022/10/28 02:52:11;;;;;;;12.90;3.50;;;21.10;98.70;;;;;;5015453;28;20056;-74
2022/10/28 02:54:53;;;;;;;27.95;4.07;;;21.10;98.00;;;;;;5032843;28;20470;-74
2022/10/28 02:57:24;;;;;;;14.73;3.78;;;21.00;98.10;;;;;;5033342;28;20089;-73
2022/10/28 02:59:58;;;;;;;16.88;3.70;;;21.00;98.00;;;;;;5033199;28;20025;-73
2022/10/28 03:02:25;;;;;;;21.77;3.55;;;21.00;98.00;;;;;;5032956;28;20181;-70
2022/10/28 03:04:52;;;;;;;13.43;3.28;;;21.00;97.60;;;;;;5032893;28;20380;-74
2022/10/28 03:07:20;;;;;;;18.95;3.63;;;21.10;97.80;;;;;;5032573;28;20469;-73
2022/10/28 03:09:59;;;;;;;15.75;3.72;;;21.00;97.40;;;;;;4983848;28;20053;-72
2022/10/28 03:12:27;;;;;;;22.52;3.60;;;21.00;97.20;;;;;;5012614;28;20058;-73
2022/10/28 03:14:53;;;;;;;19.05;3.70;;;21.00;97.40;;;;;;5012222;28;20489;-73
2022/10/28 03:17:19;;;;;;;23.90;3.60;;;21.00;96.90;;;;;;5027936;28;20091;-74
2022/10/28 03:19:47;;;;;;;14.68;3.38;;;21.10;96.50;;;;;;5013481;28;20057;-73
2022/10/28 03:22:14;;;;;;;13.75;3.40;;;21.10;96.20;;;;;;5031413;28;20061;-74
2022/10/28 03:24:40;;;;;;;16.38;3.35;;;21.10;96.20;;;;;;5032237;28;20025;-74
2022/10/28 03:27:06;;;;;;;17.27;3.80;;;21.10;96.20;;;;;;5033144;28;20037;-73
2022/10/28 03:29:34;;;;;;;16.58;3.20;;;21.10;96.00;;;;;;5032876;28;20047;-73
2022/10/28 03:32:00;;;;;;;24.08;3.60;;;21.10;95.70;;;;;;5032769;28;20472;-74
2022/10/28 03:34:28;;;;;;;18.63;4.25;;;21.20;95.40;;;;;;5033590;28;20037;-73
2022/10/28 03:36:54;;;;;;;14.85;3.45;;;21.20;94.90;;;;;;5032819;28;20025;-73
2022/10/28 03:39:20;;;;;;;27.45;3.88;;;21.10;94.80;;;;;;5032837;28;20056;-74
2022/10/28 03:41:47;;;;;;;18.85;3.92;;;21.10;95.10;;;;;;5032655;28;20481;-73
2022/10/28 03:44:13;;;;;;;10.25;2.92;;;21.20;95.20;;;;;;5032811;28;20457;-74
2022/10/28 03:46:39;;;;;;;17.95;3.80;;;21.10;95.10;;;;;;5033025;28;20030;-73
2022/10/28 03:49:07;;;;;;;17.98;3.40;;;21.10;94.90;;;;;;5032948;28;20025;-74
2022/10/28 03:51:34;;;;;;;20.67;3.80;;;21.10;94.90;;;;;;5032519;28;20025;-74
2022/10/28 03:54:00;;;;;;;20.67;3.50;;;21.10;94.80;;;;;;5032929;28;20108;-73
2022/10/28 03:56:26;;;;;;;13.07;3.42;;;21.10;94.80;;;;;;5014593;28;20039;-74
2022/10/28 03:58:53;;;;;;;19.25;3.63;;;21.10;95.10;;;;;;5032297;28;20030;-74
2022/10/28 04:01:19;;;;;;;16.15;3.55;;;21.00;94.90;;;;;;5032175;28;20025;-74
2022/10/28 04:03:45;;;;;;;22.08;4.30;;;21.10;94.90;;;;;;5032399;28;20105;-74
2022/10/28 04:06:11;;;;;;;17.10;3.63;;;21.10;94.80;;;;;;5032265;28;20394;-74
2022/10/28 04:08:38;;;;;;;16.65;3.72;;;21.10;94.70;;;;;;5032499;28;20049;-74
2022/10/28 04:11:04;;;;;;;24.98;4.40;;;21.10;94.60;;;;;;5032117;28;20077;-74
2022/10/28 04:13:33;;;;;;;18.77;3.70;;;21.00;94.70;;;;;;5032316;28;20040;-74
2022/10/28 04:16:00;;;;;;;14.00;3.40;;;21.00;94.80;;;;;;5032105;28;20108;-74
2022/10/28 04:18:27;;;;;;;15.02;3.70;;;21.00;95.20;;;;;;5032949;28;20461;-73
2022/10/28 04:20:53;;;;;;;18.77;3.92;;;21.00;94.70;;;;;;5033365;28;20060;-74
2022/10/28 04:23:20;;;;;;;15.43;3.63;;;21.00;94.40;;;;;;5032832;28;20048;-74
2022/10/28 04:25:56;;;;;;;19.52;3.38;;;21.00;94.90;;;;;;5032666;28;20033;-74
2022/10/28 04:28:23;;;;;;;21.38;4.30;;;21.10;95.90;;;;;;5015118;28;20131;-73
2022/10/28 04:30:50;;;;;;;24.15;4.20;;;21.10;96.00;;;;;;5032624;28;20074;-75
2022/10/28 04:33:18;;;;;;;27.95;4.05;;;21.10;96.00;;;;;;5032480;28;20065;-74
2022/10/28 04:35:46;;;;;;;19.83;3.53;;;21.00;96.00;;;;;;5032624;28;20377;-73
2022/10/28 04:38:14;;;;;;;20.60;3.88;;;21.00;96.10;;;;;;5032725;28;20017;-74
2022/10/28 04:40:42;;;;;;;19.52;3.85;;;21.00;96.00;;;;;;5032547;28;20485;-73
2022/10/28 04:43:10;;;;;;;18.25;3.75;;;21.00;96.20;;;;;;5033136;28;20366;-73
2022/10/28 04:45:37;;;;;;;25.05;4.07;;;20.90;96.30;;;;;;5033026;28;20049;-73
2022/10/28 04:48:03;;;;;;;18.90;4.20;;;20.80;96.40;;;;;;5032638;28;20036;-74
2022/10/28 04:50:31;;;;;;;23.60;3.97;;;20.80;96.50;;;;;;5032448;28;20038;-73
2022/10/28 04:52:57;;;;;;;22.95;4.60;;;20.80;96.60;;;;;;5014613;28;20049;-73
2022/10/28 04:55:23;;;;;;;28.05;3.78;;;20.70;96.70;;;;;;5032916;28;20025;-73
2022/10/28 04:57:57;;;;;;;20.55;4.03;;;20.70;96.70;;;;;;5032993;28;20013;-73
2022/10/28 05:00:24;;;;;;;17.08;4.28;;;20.60;96.70;;;;;;5032868;28;20101;-74
2022/10/28 05:02:50;;;;;;;27.25;4.45;;;20.60;96.60;;;;;;5033332;28;20372;-73
2022/10/28 05:05:17;;;;;;;21.73;3.85;;;20.60;96.60;;;;;;5014936;28;20022;-74
2022/10/28 05:07:50;;;;;;;19.58;4.10;;;20.60;96.70;;;;;;5032609;28;20032;-73
2022/10/28 05:10:17;;;;;;;23.92;4.13;;;20.60;96.60;;;;;;5031787;28;20068;-73
2022/10/28 05:12:46;;;;;;;25.67;4.35;;;20.50;96.90;;;;;;5013225;28;20025;-75
2022/10/28 05:15:13;;;;;;;22.25;4.40;;;20.50;97.10;;;;;;5032129;28;20033;-74
2022/10/28 05:17:45;;;;;;;21.48;4.43;;;20.50;96.90;;;;;;5032628;28;20028;-74
2022/10/28 05:20:13;;;;;;;20.65;3.10;;;20.50;96.90;;;;;;5032368;28;20080;-76
2022/10/28 05:22:47;;;;;;;25.60;4.00;;;20.50;97.00;;;;;;4998329;28;20385;-74
2022/10/28 05:25:14;;;;;;;23.27;3.92;;;20.50;97.00;;;;;;5032229;28;20053;-74
2022/10/28 05:27:41;;;;;;;18.15;3.72;;;20.60;97.20;;;;;;5014644;28;20037;-75
2022/10/28 05:30:09;;;;;;;21.42;3.88;;;20.60;97.20;;;;;;5031555;28;20060;-75
2022/10/28 05:32:36;;;;;;;21.60;3.95;;;20.60;97.30;;;;;;5031520;28;20029;-72
2022/10/28 05:35:03;;;;;;;21.17;3.88;;;20.60;97.30;;;;;;5026115;28;20026;-75
2022/10/28 05:37:29;;;;;;;20.95;4.03;;;20.60;96.10;;;;;;5011677;28;20022;-75
2022/10/28 05:39:55;;;;;;;18.38;4.13;;;20.70;95.40;;;;;;5011673;28;20042;-75
2022/10/28 05:42:21;;;;;;;20.75;4.38;;;20.70;96.00;;;;;;5011197;28;20071;-75
2022/10/28 05:44:48;;;;;;;20.35;3.85;;;20.80;95.50;;;;;;5012251;28;20062;-76
2022/10/28 05:47:14;;;;;;;14.95;3.88;;;20.80;95.40;;;;;;5014396;28;20097;-74
2022/10/28 05:49:40;;;;;;;30.55;4.35;;;20.90;94.80;;;;;;5013722;28;20102;-73
2022/10/28 05:52:06;;;;;;;27.15;4.72;;;21.00;94.90;;;;;;5014610;28;20074;-74
2022/10/28 05:54:32;;;;;;;16.02;3.30;;;21.10;94.60;;;;;;5014897;28;20344;-73
2022/10/28 05:56:58;;;;;;;24.40;3.72;;;21.30;94.60;;;;;;5014869;28;20040;-73
2022/10/28 05:59:24;;;;;;;25.05;4.20;;;21.50;94.50;;;;;;5014513;28;20185;-69
2022/10/28 06:01:50;;;;;;;22.60;4.18;;;21.90;94.00;;;;;;5014401;28;20435;-70
2022/10/28 06:04:17;;;;;;;36.10;5.03;;;22.40;93.90;;;;;;5014657;28;20088;-71
2022/10/28 06:06:44;;;;;;;;;;;22.90;93.60;;;;;;5014351;28;20026;-71
2022/10/28 06:09:10;;;;;;;23.05;4.20;;;23.40;93.30;;;;;;5014339;28;19913;-69
2022/10/28 06:11:36;;;;;;;36.97;5.07;;;23.90;93.00;;;;;;5014544;28;20029;-68
2022/10/28 06:14:02;;;;;;;21.45;4.88;;;24.40;93.20;;;;;;5014504;28;20076;-73
2022/10/28 06:16:28;;;;;;;22.40;4.00;;;25.00;92.80;;;;;;5014399;28;20022;-70
2022/10/28 06:18:54;;;;;;;27.83;4.68;;;25.50;92.30;;;;;;5014425;28;20163;-74
2022/10/28 06:21:21;;;;;;;30.60;5.00;;;26.10;92.50;;;;;;5014480;28;20029;-72
2022/10/28 06:23:47;;;;;;;26.20;4.80;;;26.50;92.50;;;;;;5014660;28;20072;-72
2022/10/28 06:26:13;;;;;;;23.77;4.72;;;26.80;92.20;;;;;;5014805;28;20057;-71
2022/10/28 06:28:39;;;;;;;23.83;4.10;;;27.10;92.40;;;;;;5014434;28;20033;-72
2022/10/28 06:31:08;;;;;;;18.27;4.28;;;27.50;92.10;;;;;;5014327;28;20026;-72
2022/10/28 06:33:34;;;;;;;30.13;4.75;;;28.00;92.00;;;;;;5014550;28;20022;-73
2022/10/28 06:36:00;;;;;;;;;;;28.30;91.80;;;;;;5022714;28;20163;-72
2022/10/28 06:38:28;;;;;;;28.17;4.53;;;28.40;92.00;;;;;;5032338;28;20352;-72
2022/10/28 06:40:58;;;;;;;26.75;4.93;;;28.70;92.00;;;;;;5034248;28;20033;-73
2022/10/28 06:43:24;;;;;;;28.38;5.28;;;29.00;92.20;;;;;;5016946;28;20309;-72
2022/10/28 06:45:56;;;;;;;21.25;4.43;;;29.40;92.20;;;;;;5033713;28;20164;-72
2022/10/28 06:48:23;;;;;;;26.77;4.93;;;29.80;92.50;;;;;;5016465;28;20063;-74
2022/10/28 06:50:56;;;;;;;27.60;5.75;;;30.10;92.60;;;;;;5034198;28;20059;-75
2022/10/28 06:53:25;;;;;;;26.15;4.85;;;30.40;92.40;;;;;;5033782;28;20049;-74
2022/10/28 06:55:53;;;;;;;22.00;4.63;;;30.80;92.40;;;;;;5033374;28;20034;-73
2022/10/28 06:58:19;;;;;;;24.67;4.57;;;31.20;92.50;;;;;;5016669;28;20170;-74
2022/10/28 07:00:46;;;;;;;30.25;4.00;;;31.40;92.30;;;;;;5033141;28;20079;-75
2022/10/28 07:03:15;;;;;;;25.45;4.10;;;31.60;92.00;;;;;;5033472;28;20028;-73
2022/10/28 07:05:41;;;;;;;25.70;5.38;;;31.80;92.20;;;;;;5033956;28;20025;-74
2022/10/28 07:08:07;;;;;;;;;;;32.30;92.10;;;;;;5016181;28;20542;-71
2022/10/28 07:10:33;;;;;;;21.58;4.22;;;32.80;92.10;;;;;;5031884;28;19959;-71
2022/10/28 07:12:59;;;;;;;25.42;4.45;;;33.40;91.60;;;;;;5029269;28;20409;-73
2022/10/28 07:15:27;;;;;;;22.65;4.43;;;33.70;91.70;;;;;;5015735;28;20485;-74
2022/10/28 07:17:54;;;;;;;23.38;4.65;;;33.50;91.60;;;;;;5033487;28;20060;-73
2022/10/28 07:20:21;;;;;;;30.70;5.10;;;34.00;91.40;;;;;;5008567;28;20076;-73
2022/10/28 07:23:00;;;;;;;20.83;4.90;;;34.10;91.10;;;;;;5020469;28;20120;-72
2022/10/28 07:25:30;;;;;;;24.30;4.63;;;33.80;91.20;;;;;;5012766;28;20030;-74
2022/10/28 07:27:59;;;;;;;24.42;4.72;;;33.20;91.10;;;;;;5031808;28;20032;-73
2022/10/28 07:30:26;;;;;;;21.73;4.05;;;32.60;91.60;;;;;;5014467;28;20065;-74
2022/10/28 07:32:54;;;;;;;21.48;4.45;;;31.90;92.20;;;;;;5024743;28;20095;-72
2022/10/28 07:35:20;;;;;;;26.67;4.88;;;31.40;92.70;;;;;;5033175;28;20475;-73
2022/10/28 07:37:47;;;;;;;21.98;4.18;;;30.80;92.90;;;;;;5015179;28;20040;-71
2022/10/28 07:40:13;;;;;;;32.65;4.63;;;30.30;93.20;;;;;;5032637;28;20091;-71
2022/10/28 07:42:39;;;;;;;30.38;4.32;;;29.90;93.60;;;;;;5033191;28;20040;-72
2022/10/28 07:45:06;;;;;;;24.42;4.70;;;29.30;94.20;;;;;;5033180;28;20091;-72
2022/10/28 07:47:33;;;;;;;30.20;4.78;;;28.60;94.60;;;;;;5033145;28;20025;-71
2022/10/28 07:49:59;;;;;;;32.72;4.93;;;27.90;95.10;;;;;;5014631;28;20060;-73
2022/10/28 07:52:27;;;;;;;27.90;4.47;;;28.00;95.30;;;;;;5032189;28;20120;-73
2022/10/28 07:54:53;;;;;;;32.70;5.20;;;27.90;95.40;;;;;;5014580;28;20049;-72
2022/10/28 07:57:19;;;;;;;25.70;4.32;;;27.90;95.90;;;;;;5032545;28;20022;-72
2022/10/28 07:59:45;;;;;;;33.17;5.63;;;27.70;96.00;;;;;;5032709;28;20349;-72
2022/10/28 08:02:21;;;;;;;26.90;5.03;;;27.70;95.90;;;;;;5032046;28;20017;-72
2022/10/28 08:04:47;;;;;;;;;;;27.80;96.00;;;;;;5032233;28;20029;-73
2022/10/28 08:07:15;;;;;;;23.55;4.88;;;28.00;95.90;;;;;;5032388;28;20242;-75
2022/10/28 08:09:48;;;;;;;32.83;4.50;;;28.00;96.00;;;;;;5032071;28;20040;-79
2022/10/28 08:12:15;;;;;;;28.23;4.63;;;28.00;95.50;;;;;;5014346;28;20072;-79
2022/10/28 08:14:41;;;;;;;31.55;5.30;;;27.60;96.40;;;;;;5014633;28;20032;-79
2022/10/28 08:17:10;;;;;;;34.08;4.93;;;27.70;96.30;;;;;;5032869;28;20029;-80
2022/10/28 08:19:36;;;;;;;25.13;4.55;;;27.70;96.40;;;;;;5033330;28;20025;-78
2022/10/28 08:22:03;;;;;;;33.58;4.90;;;27.60;96.40;;;;;;5032768;28;20021;-80
2022/10/28 08:24:29;;;;;;;29.02;4.65;;;27.50;96.40;;;;;;5032801;28;20031;-80
2022/10/28 08:26:56;;;;;;;27.10;4.45;;;27.40;95.10;;;;;;5033160;28;20056;-80
2022/10/28 08:29:22;;;;;;;30.48;4.65;;;27.30;96.50;;;;;;5032503;28;20044;-82
2022/10/28 08:31:49;;;;;;;29.15;5.20;;;27.30;96.70;;;;;;5015135;28;20437;-81
2022/10/28 08:34:15;;;;;;;30.25;4.90;;;27.60;96.60;;;;;;5032440;28;20025;-81
2022/10/28 08:36:41;;;;;;;30.73;4.63;;;27.70;96.10;;;;;;5032533;28;20036;-82
2022/10/28 08:39:08;;;;;;;28.40;5.30;;;27.60;96.30;;;;;;5032910;28;20033;-81
2022/10/28 08:41:39;;;;;;;34.60;5.53;;;27.70;96.30;;;;;;5032272;28;20018;-79
2022/10/28 08:44:21;;;;;;;27.92;5.10;;;27.60;95.90;;;;;;5032779;28;20140;-76
2022/10/28 08:47:22;;;;;;;28.30;5.65;;;27.50;96.00;;;;;;5032341;28;20596;-79
2022/10/28 08:49:57;;;;;;;31.40;5.18;;;27.20;95.80;;;;;;5031981;28;20049;-82
2022/10/28 08:52:54;;;;;;;31.10;5.05;;;27.00;97.30;;;;;;5031865;28;20052;-81
2022/10/28 08:55:45;;;;;;;28.58;5.00;;;27.20;97.60;;;;;;5031952;28;20108;-80
2022/10/28 08:58:29;;;;;;;30.65;4.95;;;27.50;97.30;;;;;;5025320;28;20072;-80
2022/10/28 09:01:00;;;;;;;33.30;5.20;;;27.60;97.40;;;;;;5031611;28;20026;-76
2022/10/28 09:03:37;;;;;;;29.40;5.63;;;27.60;97.60;;;;;;5031597;28;20096;-75
2022/10/28 09:06:08;;;;;;;42.97;6.95;;;27.90;97.00;;;;;;5031618;28;20038;-77
2022/10/28 09:08:44;;;;;;;36.83;5.38;;;28.00;96.80;;;;;;5031590;28;20112;-74
2022/10/28 09:11:09;;;;;;;35.05;5.38;;;27.90;96.50;;;;;;5031616;28;20056;-77
2022/10/28 09:14:02;;;;;;;32.58;6.28;;;27.80;96.20;;;;;;5031168;28;20434;-72
2022/10/28 09:16:28;;;;;;;31.70;5.63;;;27.70;97.60;;;;;;5031599;28;20021;-74
2022/10/28 09:19:13;;;;;;;35.92;5.88;;;27.60;98.90;;;;;;5031589;28;20026;-74
2022/10/28 09:21:49;;;;;;;36.88;6.38;;;27.70;99.00;;;;;;5035684;28;20053;-74
2022/10/28 09:24:43;;;;;;;30.55;5.80;;;27.80;99.60;;;;;;5035196;28;20049;-73
2022/10/28 09:27:37;;;;;;;39.43;5.50;;;27.90;99.90;;;;;;5024993;28;20045;-75
2022/10/28 09:30:36;;;;;;;42.47;6.35;;;27.90;99.90;;;;;;5035175;28;20091;-74
2022/10/28 09:33:28;;;;;;;31.60;6.05;;;27.90;99.90;;;;;;5034922;28;20029;-74
2022/10/28 09:35:59;;;;;;;29.08;5.70;;;27.50;99.90;;;;;;5034748;28;20488;-73
2022/10/28 09:38:58;;;;;;;36.83;6.32;;;27.80;99.90;;;;;;5035126;28;20019;-74
2022/10/28 09:41:30;;;;;;;32.20;5.53;;;27.60;99.90;;;;;;5015258;28;20034;-74
2022/10/28 09:44:26;;;;;;;30.15;6.38;;;27.60;99.90;;;;;;4997080;28;20452;-73
2022/10/28 09:46:58;;;;;;;30.70;5.53;;;27.80;99.90;;;;;;4976906;28;20481;-73
2022/10/28 09:49:30;;;;;;;31.30;5.55;;;28.00;99.90;;;;;;4996900;28;20125;-73
2022/10/28 09:52:09;;;;;;;39.42;5.85;;;28.00;99.90;;;;;;4985246;28;20030;-73
2022/10/28 09:54:45;;;;;;;32.22;5.60;;;27.90;99.90;;;;;;5000745;28;20092;-70
2022/10/28 09:57:11;;;;;;;30.45;5.10;;;27.90;99.90;;;;;;5005467;28;20022;-74
2022/10/28 09:59:37;;;;;;;34.38;5.70;;;27.90;99.90;;;;;;4995391;28;20536;-75
2022/10/28 10:02:04;;;;;;;38.53;5.95;;;28.10;99.90;;;;;;4994914;28;20371;-75
2022/10/28 10:04:30;;;;;;;34.90;5.65;;;28.20;99.90;;;;;;5002578;28;20045;-78
2022/10/28 10:07:07;;;;;;;27.77;5.47;;;28.20;99.90;;;;;;5025183;28;20022;-71
2022/10/28 10:09:36;;;;;;;46.13;7.05;;;28.20;99.90;;;;;;5014902;28;20251;-73
2022/10/28 10:12:08;;;;;;;34.25;7.15;;;28.20;99.90;;;;;;5013289;28;20145;-71
2022/10/28 10:14:49;;;;;;;28.98;6.57;;;28.10;99.90;;;;;;5014741;28;20049;-74
2022/10/28 10:17:19;;;;;;;36.60;7.55;;;28.20;99.90;;;;;;5014166;28;20453;-73
2022/10/28 10:20:01;;;;;;;40.65;8.00;;;28.10;99.90;;;;;;5013862;28;20458;-74
2022/10/28 10:22:39;;;;;;;33.63;6.78;;;28.00;99.90;;;;;;5014320;28;20036;-71
2022/10/28 10:25:17;;;;;;;32.63;6.65;;;27.90;99.90;;;;;;5014335;28;20033;-71
2022/10/28 10:28:16;;;;;;;36.92;5.82;;;27.90;99.90;;;;;;5014461;28;20022;-70
2022/10/28 10:31:02;;;;;;;22.38;5.45;;;27.90;99.90;;;;;;4937071;29;20051;-70
2022/10/28 10:33:37;;;;;;;31.02;6.13;;;28.10;99.90;;;;;;4953886;29;20039;-71
2022/10/28 10:36:13;;;;;;;39.83;7.00;;;28.10;99.90;;;;;;4952796;29;20031;-73
2022/10/28 10:38:53;;;;;;;25.85;5.68;;;28.00;99.90;;;;;;4937414;29;20320;-73
2022/10/28 10:41:38;;;;;;;26.02;5.65;;;28.10;99.90;;;;;;4937660;29;20035;-73
2022/10/28 10:44:27;;;;;;;32.90;6.13;;;28.20;99.90;;;;;;4953479;29;20072;-74
2022/10/28 10:47:02;;;;;;;57.25;8.50;;;28.20;99.90;;;;;;4950617;29;20082;-75
2022/10/28 10:49:29;;;;;;;35.73;5.83;;;28.10;99.90;;;;;;4953243;29;20035;-75
2022/10/28 10:52:28;;;;;;;37.25;6.22;;;28.10;99.90;;;;;;4952064;29;20122;-74
2022/10/28 10:55:21;;;;;;;31.85;5.63;;;28.10;99.90;;;;;;4952557;29;20035;-74
2022/10/28 10:57:49;;;;;;;33.97;6.30;;;28.20;99.90;;;;;;4952390;29;20039;-73
2022/10/28 11:00:19;;;;;;;33.45;6.80;;;28.20;99.90;;;;;;4953076;29;20046;-73
2022/10/28 11:02:47;;;;;;;36.70;6.60;;;28.20;99.90;;;;;;4952581;29;20123;-73
2022/10/28 11:05:20;;;;;;;23.00;4.93;;;28.40;99.90;;;;;;4954725;28;20075;-74
2022/10/28 11:07:49;;;;;;;28.67;4.97;;;28.40;99.90;;;;;;4993323;28;20034;-74
2022/10/28 11:10:23;;;;;;;26.08;5.28;;;28.50;99.90;;;;;;4993525;28;20565;-74
2022/10/28 11:12:55;;;;;;;32.10;4.85;;;28.30;99.90;;;;;;4993579;28;20081;-73
2022/10/28 11:15:29;;;;;;;29.05;5.50;;;28.00;99.90;;;;;;5004472;28;20095;-73
2022/10/28 11:18:15;;;;;;;31.40;5.30;;;27.80;99.90;;;;;;4991686;28;20097;-74
2022/10/28 11:21:14;;;;;;;31.85;5.40;;;27.90;99.90;;;;;;5014009;28;20026;-75
2022/10/28 11:24:06;;;;;;;35.35;5.57;;;28.10;99.90;;;;;;4972045;28;20039;-76
2022/10/28 11:26:41;;;;;;;30.27;5.93;;;28.00;99.90;;;;;;4972254;28;20451;-75
2022/10/28 11:29:13;;;;;;;38.58;6.20;;;28.10;99.90;;;;;;4971814;28;20122;-72
2022/10/28 11:32:10;;;;;;;32.15;5.80;;;28.20;99.90;;;;;;4955963;28;20037;-74
2022/10/28 11:35:02;;;;;;;31.67;6.88;;;28.30;99.90;;;;;;4972125;28;20039;-75
2022/10/28 11:37:51;;;;;;;26.77;6.03;;;28.10;99.90;;;;;;4972210;28;20027;-74
2022/10/28 11:40:53;;;;;;;21.38;5.30;;;28.10;99.90;;;;;;4972079;28;20204;-74
2022/10/28 11:43:29;;;;;;;31.65;5.38;;;28.30;99.90;;;;;;4970481;28;20110;-75
2022/10/28 11:46:31;;;;;;;30.42;5.75;;;28.50;99.90;;;;;;4971966;28;20030;-73
2022/10/28 11:49:24;;;;;;;29.05;5.55;;;28.50;99.90;;;;;;4971738;28;20070;-74
2022/10/28 11:52:06;;;;;;;28.63;5.07;;;28.50;99.90;;;;;;4968938;28;20050;-75
2022/10/28 11:54:41;;;;;;;25.02;5.18;;;28.50;99.90;;;;;;4952768;29;20127;-77
2022/10/28 11:57:16;;;;;;;29.42;5.15;;;28.40;99.90;;;;;;4952390;29;20043;-75
2022/10/28 12:00:12;;;;;;;32.05;5.45;;;28.40;99.90;;;;;;4958208;28;20030;-75
2022/10/28 12:03:08;;;;;;;24.80;5.03;;;28.30;99.90;;;;;;5012584;28;20018;-75
2022/10/28 12:06:10;;;;;;;26.60;5.32;;;28.20;99.90;;;;;;5012330;28;20029;-75
2022/10/28 12:08:54;;;;;;;28.95;5.30;;;28.20;99.90;;;;;;4972240;28;20125;-76
2022/10/28 12:11:56;;;;;;;21.95;4.88;;;28.30;99.90;;;;;;4971754;28;20046;-76
2022/10/28 12:14:52;;;;;;;29.27;5.70;;;28.10;99.90;;;;;;4972049;28;20027;-76
2022/10/28 12:17:47;;;;;;;25.63;5.03;;;28.20;99.90;;;;;;4939817;28;20038;-75
2022/10/28 12:20:32;;;;;;;35.63;6.10;;;28.10;99.90;;;;;;4972252;28;20031;-76
2022/10/28 12:23:02;;;;;;;25.70;4.75;;;27.70;99.90;;;;;;4972321;28;20034;-75
2022/10/28 12:25:33;;;;;;;25.70;5.57;;;27.50;99.90;;;;;;4972089;28;20039;-75
2022/10/28 12:28:52;;;;;;;27.33;5.47;;;27.10;99.90;;;;;;4971794;28;20116;-75
2022/10/28 12:31:29;;;;;;;27.02;5.80;;;27.00;99.90;;;;;;4895297;29;20053;-75
2022/10/28 12:33:58;;;;;;;24.75;5.82;;;26.90;99.90;;;;;;4896132;29;20486;-76
2022/10/28 12:36:51;;;;;;;26.25;5.47;;;26.80;99.90;;;;;;4895666;29;20100;-75
2022/10/28 12:39:32;;;;;;;32.97;6.35;;;27.00;99.90;;;;;;4895930;29;20093;-76
2022/10/28 12:42:20;;;;;;;38.35;6.15;;;26.90;99.90;;;;;;4895898;29;20482;-75
2022/10/28 12:44:48;;;;;;;31.58;6.15;;;26.80;99.90;;;;;;4899797;29;20047;-77
2022/10/28 12:47:30;;;;;;;34.35;6.28;;;27.00;99.90;;;;;;4914497;29;20067;-77
2022/10/28 12:50:24;;;;;;;26.48;5.95;;;27.00;99.90;;;;;;4914234;29;20043;-74
2022/10/28 12:53:34;;;;;;;21.92;5.47;;;26.90;99.90;;;;;;4923649;29;20047;-75
2022/10/28 12:56:16;;;;;;;28.48;5.90;;;27.00;99.90;;;;;;4875631;29;20113;-76
2022/10/28 12:59:00;;;;;;;24.02;5.35;;;27.00;99.90;;;;;;4876693;29;20029;-76
2022/10/28 13:01:30;;;;;;;27.75;5.88;;;27.00;99.90;;;;;;4876724;29;20131;-75
2022/10/28 13:03:56;;;;;;;27.42;5.18;;;27.10;99.90;;;;;;4876422;29;20108;-75
2022/10/28 13:06:28;;;;;;;24.05;5.90;;;27.10;99.90;;;;;;4876805;29;20405;-76
2022/10/28 13:09:23;;;;;;;25.08;5.85;;;27.10;99.90;;;;;;4932438;29;20048;-69
2022/10/28 13:12:21;;;;;;;;;;;27.10;99.90;;;;;;4924657;29;20064;-74